Time,TemperatureF,DewpointF,PressureIn,WindDirection,WindDirectionDegrees,WindSpeedMPH,WindSpeedGustMPH,Humidity,HourlyPrecipIn,Conditions,Clouds,dailyrainin,SolarRadiationWatts/m^2,SoftwareType,DateUTC
2015-08-31 00:09:00,72.5,61.3,29.88,West,263,2.0,6.0,68,0.00,,---,0.00,0.00,VWS V14.01,2015-08-31 05:09:00,
2015-08-31 00:19:00,72.3,60.3,29.88,WNW,301,4.0,7.0,66,0.00,,---,0.00,0.00,VWS V14.01,2015-08-31 05:19:00,
2015-08-31 00:29:00,72.1,59.7,29.88,WNW,286,3.0,4.0,65,0.00,,---,0.00,0.00,VWS V14.01,2015-08-31 05:29:00,
2015-08-31 00:39:00,72.1,59.3,29.88,West,277,3.0,6.0,64,0.00,,---,0.00,0.00,VWS V14.01,2015-08-31 05:39:00,
2015-08-31 00:49:00,72.2,58.9,29.88,West,275,6.0,7.0,63,0.00,,---,0.00,0.00,VWS V14.01,2015-08-31 05:49:00,
2015-08-31 00:59:00,72.4,59.5,29.88,WNW,291,2.0,9.0,64,0.00,,---,0.00,0.00,VWS V14.01,2015-08-31 05:59:00,
2015-08-31 01:09:00,72.3,59.5,29.88,West,276,2.0,5.0,64,0.00,,---,0.00,0.00,VWS V14.01,2015-08-31 06:09:00,
2015-08-31 01:19:00,72.1,59.7,29.88,WNW,289,4.0,6.0,65,0.00,,---,0.00,0.00,VWS V14.01,2015-08-31 06:19:00,
2015-08-31 01:29:00,72.0,59.6,29.87,WNW,289,0.0,3.0,65,0.00,,---,0.00,0.00,VWS V14.01,2015-08-31 06:29:00,
2015-08-31 01:39:00,71.8,60.3,29.87,West,279,4.0,7.0,67,0.00,,---,0.00,0.00,VWS V14.01,2015-08-31 06:39:00,
2015-08-31 01:49:00,71.8,60.3,29.87,WSW,253,4.0,11.0,67,0.00,,---,0.00,0.00,VWS V14.01,2015-08-31 06:49:00,
2015-08-31 01:59:00,71.7,60.2,29.87,West,271,6.0,7.0,67,0.00,,---,0.00,0.00,VWS V14.01,2015-08-31 06:59:00,
2015-08-31 02:09:00,71.6,60.5,29.88,West,265,4.0,7.0,68,0.00,,---,0.00,0.00,VWS V14.01,2015-08-31 07:09:00,
2015-08-31 02:19:00,71.5,60.0,29.87,West,271,1.0,5.0,67,0.00,,---,0.00,0.00,VWS V14.01,2015-08-31 07:19:00,
2015-08-31 02:29:00,71.3,59.8,29.87,WNW,282,1.0,4.0,67,0.00,,---,0.00,0.00,VWS V14.01,2015-08-31 07:29:00,
2015-08-31 02:39:00,71.2,60.1,29.86,West,273,0.0,1.0,68,0.00,,---,0.00,0.00,VWS V14.01,2015-08-31 07:39:00,
2015-08-31 02:49:00,70.8,59.7,29.86,West,274,0.0,1.0,68,0.00,,---,0.00,0.00,VWS V14.01,2015-08-31 07:49:00,
2015-08-31 02:59:00,70.6,59.5,29.86,West,274,0.0,0.0,68,0.00,,---,0.00,0.00,VWS V14.01,2015-08-31 07:59:00,
2015-08-31 03:09:00,70.6,59.1,29.86,West,274,0.0,1.0,67,0.00,,---,0.00,0.00,VWS V14.01,2015-08-31 08:09:00,
2015-08-31 03:19:00,70.9,59.0,29.86,West,275,0.0,1.0,66,0.00,,---,0.00,0.00,VWS V14.01,2015-08-31 08:19:00,
2015-08-31 03:29:00,71.1,59.2,29.86,WNW,301,3.0,4.0,66,0.00,,---,0.00,0.00,VWS V14.01,2015-08-31 08:29:00,
2015-08-31 03:39:00,71.3,59.4,29.87,West,261,1.0,7.0,66,0.00,,---,0.00,0.00,VWS V14.01,2015-08-31 08:39:00,
2015-08-31 03:49:00,71.5,60.4,29.87,WSW,246,0.0,3.0,68,0.00,,---,0.00,0.00,VWS V14.01,2015-08-31 08:49:00,
2015-08-31 03:59:00,71.3,60.2,29.88,SE,132,2.0,6.0,68,0.00,,---,0.00,0.00,VWS V14.01,2015-08-31 08:59:00,
2015-08-31 04:09:00,70.9,59.8,29.88,SSE,152,2.0,5.0,68,0.00,,---,0.00,0.00,VWS V14.01,2015-08-31 09:09:00,
2015-08-31 04:19:00,70.6,60.0,29.88,SSW,203,3.0,4.0,69,0.00,,---,0.00,0.00,VWS V14.01,2015-08-31 09:19:00,
2015-08-31 04:29:00,70.4,60.6,29.88,ESE,115,0.0,4.0,71,0.00,,---,0.00,0.00,VWS V14.01,2015-08-31 09:29:00,
2015-08-31 04:39:00,70.1,60.3,29.88,South,182,1.0,13.0,71,0.00,,---,0.00,0.00,VWS V14.01,2015-08-31 09:39:00,
2015-08-31 04:49:00,68.3,60.1,29.88,East,89,0.0,6.0,75,0.06,,---,0.06,0.00,VWS V14.01,2015-08-31 09:49:00,
2015-08-31 04:59:00,66.1,59.8,29.88,East,88,0.0,1.0,80,0.10,,---,0.10,0.00,VWS V14.01,2015-08-31 09:59:00,
2015-08-31 05:09:00,65.1,59.5,29.87,ENE,75,1.0,3.0,82,0.12,,---,0.12,0.00,VWS V14.01,2015-08-31 10:09:00,
2015-08-31 05:19:00,64.5,59.2,29.86,NNW,331,2.0,7.0,83,0.13,,---,0.13,0.00,VWS V14.01,2015-08-31 10:19:00,
2015-08-31 05:29:00,64.3,59.0,29.86,NNW,338,0.0,2.0,83,0.14,,---,0.14,0.00,VWS V14.01,2015-08-31 10:29:00,
2015-08-31 05:39:00,64.4,59.1,29.85,NNW,337,2.0,4.0,83,0.15,,---,0.15,0.00,VWS V14.01,2015-08-31 10:39:00,
2015-08-31 05:49:00,64.3,58.7,29.85,NNW,338,0.0,1.0,82,0.15,,---,0.15,0.00,VWS V14.01,2015-08-31 10:49:00,
2015-08-31 05:59:00,64.1,58.8,29.86,NNW,338,0.0,3.0,83,0.10,,---,0.16,0.00,VWS V14.01,2015-08-31 10:59:00,
2015-08-31 06:09:00,63.6,58.7,29.85,NNW,338,0.0,1.0,84,0.06,,---,0.16,0.00,VWS V14.01,2015-08-31 11:09:00,
2015-08-31 06:19:00,63.5,58.6,29.85,NNW,337,0.0,1.0,84,0.04,,---,0.16,0.00,VWS V14.01,2015-08-31 11:19:00,
2015-08-31 06:29:00,63.5,58.6,29.86,NNW,338,0.0,0.0,84,0.03,,---,0.16,0.00,VWS V14.01,2015-08-31 11:29:00,
2015-08-31 06:39:00,63.7,59.4,29.87,NNW,337,0.0,0.0,86,0.02,,---,0.16,0.00,VWS V14.01,2015-08-31 11:39:00,
2015-08-31 06:49:00,63.9,59.6,29.87,NNW,338,0.0,0.0,86,0.01,,---,0.16,0.00,VWS V14.01,2015-08-31 11:49:00,
2015-08-31 06:59:00,63.8,59.5,29.87,NNW,337,0.0,0.0,86,0.01,,---,0.16,0.00,VWS V14.01,2015-08-31 11:59:00,
2015-08-31 07:09:00,64.0,60.1,29.87,NNW,338,0.0,0.0,87,0.00,,---,0.16,0.00,VWS V14.01,2015-08-31 12:09:00,
2015-08-31 07:19:00,64.2,60.3,29.87,NNW,338,0.0,0.0,87,0.00,,---,0.16,0.00,VWS V14.01,2015-08-31 12:19:00,
2015-08-31 07:29:00,64.1,59.8,29.88,NNW,338,0.0,2.0,86,0.00,,---,0.16,0.00,VWS V14.01,2015-08-31 12:29:00,
2015-08-31 07:39:00,63.7,59.4,29.88,NNW,338,0.0,2.0,86,0.00,,---,0.16,0.00,VWS V14.01,2015-08-31 12:39:00,
2015-08-31 07:49:00,63.7,59.1,29.88,NNW,337,0.0,2.0,85,0.00,,---,0.16,7.00,VWS V14.01,2015-08-31 12:49:00,
2015-08-31 07:59:00,64.2,59.6,29.88,NNW,338,0.0,0.0,85,0.00,,---,0.16,16.00,VWS V14.01,2015-08-31 12:59:00,
2015-08-31 08:09:00,64.3,59.7,29.89,NNW,338,0.0,1.0,85,0.00,,---,0.16,28.00,VWS V14.01,2015-08-31 13:09:00,
2015-08-31 08:19:00,64.5,59.9,29.89,NNW,338,0.0,0.0,85,0.00,,---,0.16,44.00,VWS V14.01,2015-08-31 13:19:00,
2015-08-31 08:29:00,64.6,60.0,29.89,NNW,337,0.0,0.0,85,0.00,,---,0.16,62.00,VWS V14.01,2015-08-31 13:29:00,
2015-08-31 08:39:00,64.8,60.5,29.89,NNW,338,0.0,1.0,86,0.00,,---,0.16,76.00,VWS V14.01,2015-08-31 13:39:00,
2015-08-31 08:49:00,65.4,60.8,29.89,NNW,337,0.0,0.0,85,0.00,,---,0.16,95.00,VWS V14.01,2015-08-31 13:49:00,
2015-08-31 08:59:00,66.3,61.7,29.90,North,360,0.0,0.0,85,0.00,,---,0.16,113.00,VWS V14.01,2015-08-31 13:59:00,
2015-08-31 09:09:00,66.9,62.2,29.90,North,360,0.0,0.0,85,0.00,,---,0.16,130.00,VWS V14.01,2015-08-31 14:09:00,
2015-08-31 09:19:00,67.6,63.3,29.90,North,360,0.0,0.0,86,0.00,,---,0.16,163.00,VWS V14.01,2015-08-31 14:19:00,
2015-08-31 09:29:00,68.1,63.4,29.90,North,360,0.0,0.0,85,0.00,,---,0.16,204.00,VWS V14.01,2015-08-31 14:29:00,
2015-08-31 09:39:00,68.8,63.8,29.91,North,360,0.0,0.0,84,0.00,,---,0.16,223.00,VWS V14.01,2015-08-31 14:39:00,
2015-08-31 09:49:00,68.9,62.8,29.91,ESE,114,2.0,4.0,81,0.00,,---,0.16,257.00,VWS V14.01,2015-08-31 14:49:00,
2015-08-31 09:59:00,69.2,62.8,29.92,ESE,114,0.0,3.0,80,0.00,,---,0.16,343.00,VWS V14.01,2015-08-31 14:59:00,
2015-08-31 10:09:00,70.1,62.6,29.92,ESE,113,3.0,4.0,77,0.00,,---,0.16,352.00,VWS V14.01,2015-08-31 15:09:00,
2015-08-31 10:19:00,70.3,62.0,29.92,East,95,2.0,5.0,75,0.00,,---,0.16,339.00,VWS V14.01,2015-08-31 15:19:00,
2015-08-31 10:29:00,70.4,62.1,29.93,East,80,0.0,5.0,75,0.00,,---,0.16,304.00,VWS V14.01,2015-08-31 15:29:00,
2015-08-31 10:39:00,70.6,61.9,29.93,ENE,76,0.0,5.0,74,0.00,,---,0.16,360.00,VWS V14.01,2015-08-31 15:39:00,
2015-08-31 10:49:00,70.8,61.3,29.94,ENE,78,4.0,6.0,72,0.00,,---,0.16,392.00,VWS V14.01,2015-08-31 15:49:00,
2015-08-31 10:59:00,71.1,62.0,29.94,ENE,78,2.0,3.0,73,0.00,,---,0.16,269.00,VWS V14.01,2015-08-31 15:59:00,
2015-08-31 11:09:00,71.5,62.4,29.94,ENE,78,5.0,6.0,73,0.00,,---,0.16,621.00,VWS V14.01,2015-08-31 16:09:00,
2015-08-31 11:19:00,72.2,62.7,29.94,East,98,5.0,6.0,72,0.00,,---,0.16,633.00,VWS V14.01,2015-08-31 16:19:00,
2015-08-31 11:29:00,72.9,62.5,29.94,ENE,74,3.0,5.0,70,0.00,,---,0.16,455.00,VWS V14.01,2015-08-31 16:29:00,
2015-08-31 11:39:00,72.6,62.3,29.95,NE,56,3.0,5.0,70,0.00,,---,0.16,366.00,VWS V14.01,2015-08-31 16:39:00,
2015-08-31 11:59:00,73.2,62.0,29.94,ENE,63,1.0,4.0,68,0.00,,---,0.16,536.00,VWS V14.01,2015-08-31 16:59:00,
2015-08-31 12:09:00,74.8,63.1,29.94,ENE,63,0.0,2.0,67,0.00,,---,0.16,524.00,VWS V14.01,2015-08-31 17:09:00,
2015-08-31 12:29:00,77.6,64.9,29.94,SSE,148,2.0,6.0,65,0.00,,---,0.16,888.00,VWS V14.01,2015-08-31 17:29:00,
2015-08-31 12:39:00,78.3,65.6,29.94,SSW,205,4.0,5.0,65,0.00,,---,0.16,835.00,VWS V14.01,2015-08-31 17:39:00,
2015-08-31 12:49:00,78.6,65.9,29.93,SSE,153,4.0,5.0,65,0.00,,---,0.16,1009.00,VWS V14.01,2015-08-31 17:49:00,
2015-08-31 12:59:00,78.9,65.7,29.93,SSE,152,2.0,7.0,64,0.00,,---,0.16,988.00,VWS V14.01,2015-08-31 17:59:00,
2015-08-31 13:09:00,78.7,65.5,29.93,SSE,149,5.0,5.0,64,0.00,,---,0.16,951.00,VWS V14.01,2015-08-31 18:09:00,
2015-08-31 13:19:00,78.4,64.3,29.93,SSW,213,2.0,5.0,62,0.00,,---,0.16,629.00,VWS V14.01,2015-08-31 18:19:00,
2015-08-31 13:29:00,78.1,64.0,29.92,South,186,0.0,4.0,62,0.00,,---,0.16,606.00,VWS V14.01,2015-08-31 18:29:00,
2015-08-31 13:39:00,77.4,63.4,29.92,SSW,209,4.0,5.0,62,0.00,,---,0.16,951.00,VWS V14.01,2015-08-31 18:39:00,
2015-08-31 13:49:00,77.8,64.2,29.91,South,190,0.0,1.0,63,0.00,,---,0.16,1086.00,VWS V14.01,2015-08-31 18:49:00,
2015-08-31 14:19:00,79.4,65.3,29.90,SSE,148,0.0,4.0,62,0.00,,---,0.16,722.00,VWS V14.01,2015-08-31 19:19:00,
2015-08-31 14:29:00,79.6,65.0,29.90,WSW,249,0.0,5.0,61,0.00,,---,0.16,970.00,VWS V14.01,2015-08-31 19:29:00,
2015-08-31 14:39:00,79.7,64.1,29.89,SSW,202,0.0,4.0,59,0.00,,---,0.16,687.00,VWS V14.01,2015-08-31 19:39:00,
2015-08-31 14:49:00,80.8,64.7,29.89,SSW,195,2.0,5.0,58,0.00,,---,0.16,1049.00,VWS V14.01,2015-08-31 19:49:00,
2015-08-31 14:59:00,81.2,65.5,29.88,SW,230,0.0,4.0,59,0.00,,---,0.16,1051.00,VWS V14.01,2015-08-31 19:59:00,
2015-08-31 15:09:00,81.4,65.2,29.88,WSW,247,4.0,7.0,58,0.00,,---,0.16,1088.00,VWS V14.01,2015-08-31 20:09:00,
2015-08-31 15:19:00,80.8,64.7,29.88,WNW,298,4.0,5.0,58,0.00,,---,0.16,835.00,VWS V14.01,2015-08-31 20:19:00,
2015-08-31 15:29:00,79.8,63.7,29.87,WSW,240,0.0,4.0,58,0.00,,---,0.16,494.00,VWS V14.01,2015-08-31 20:29:00,
2015-08-31 15:39:00,80.3,64.7,29.86,WSW,242,0.0,5.0,59,0.00,,---,0.16,489.00,VWS V14.01,2015-08-31 20:39:00,
2015-08-31 15:49:00,80.3,64.7,29.86,WSW,245,0.0,4.0,59,0.00,,---,0.16,519.00,VWS V14.01,2015-08-31 20:49:00,
2015-08-31 15:59:00,79.5,63.9,29.85,WSW,258,0.0,6.0,59,0.00,,---,0.16,476.00,VWS V14.01,2015-08-31 20:59:00,
2015-08-31 16:09:00,78.5,64.0,29.85,West,272,4.0,7.0,61,0.00,,---,0.16,563.00,VWS V14.01,2015-08-31 21:09:00,
2015-08-31 16:19:00,78.6,63.6,29.85,WSW,248,4.0,5.0,60,0.00,,---,0.16,446.00,VWS V14.01,2015-08-31 21:19:00,
2015-08-31 16:29:00,78.4,64.8,29.84,WSW,250,1.0,6.0,63,0.00,,---,0.16,424.00,VWS V14.01,2015-08-31 21:29:00,
2015-08-31 16:39:00,78.0,63.9,29.83,WSW,246,4.0,6.0,62,0.00,,---,0.16,441.00,VWS V14.01,2015-08-31 21:39:00,
2015-08-31 16:49:00,78.6,65.4,29.83,WSW,246,0.0,4.0,64,0.00,,---,0.16,466.00,VWS V14.01,2015-08-31 21:49:00,
2015-08-31 16:59:00,79.3,64.7,29.83,West,259,0.0,4.0,61,0.00,,---,0.16,533.00,VWS V14.01,2015-08-31 21:59:00,
2015-08-31 17:09:00,79.8,65.2,29.83,West,268,3.0,5.0,61,0.00,,---,0.16,545.00,VWS V14.01,2015-08-31 22:09:00,
2015-08-31 17:19:00,79.7,65.1,29.83,WSW,248,0.0,3.0,61,0.00,,---,0.16,492.00,VWS V14.01,2015-08-31 22:19:00,